Terminal Aerodrome Forecast
Issued by NWS Albuquerque, NM

Home | Current Version | Previous Version | Text Only | Print | Product List | Glossary On
Versions: 1 2 3 4 5 6 7 8 9 10 11 12 13
230
FTUS45 KABQ 230537
TAFABQ
TAF
KABQ 230537Z 2306/2406 36006KT P6SM SCT130
     FM231500 29005KT P6SM SKC
     FM232300 32008KT P6SM SCT120
     FM240300 26010KT P6SM BKN110=

USA.gov is the U.S. government's official web portal to all federal, state and local government web resources and services.